createdAt,value
2022-07-29T00:02:14.370Z,10.10
2022-07-29T00:04:45.031Z,9.50
2022-07-29T00:07:15.509Z,12.40
2022-07-29T00:09:52.102Z,12.90
2022-07-29T00:12:25.658Z,11.80
2022-07-29T00:14:58.759Z,9.30
2022-07-29T00:17:29.420Z,12.30
2022-07-29T00:20:00.165Z,10.70
2022-07-29T00:22:30.779Z,11.50
2022-07-29T00:25:01.265Z,13.90
2022-07-29T00:27:31.784Z,9.70
2022-07-29T00:30:02.437Z,8.90
2022-07-29T00:32:33.251Z,8.70
2022-07-29T00:35:21.388Z,12.60
2022-07-29T00:37:52.095Z,12.30
2022-07-29T00:40:23.589Z,8.80
2022-07-29T00:42:55.129Z,10.10
2022-07-29T00:45:25.954Z,11.00
2022-07-29T00:47:56.533Z,12.90
2022-07-29T00:50:27.695Z,9.00
2022-07-29T00:55:29.091Z,10.30
2022-07-29T00:58:00.565Z,10.30
2022-07-29T01:00:32.448Z,10.20
2022-07-29T01:03:03.067Z,10.20
2022-07-29T01:05:48.528Z,10.00
2022-07-29T01:08:23.937Z,11.00
2022-07-29T01:10:55.287Z,11.00
2022-07-29T01:13:27.580Z,11.70
2022-07-29T01:16:06.202Z,10.80
2022-07-29T01:18:41.432Z,11.10
2022-07-29T01:21:42.368Z,9.90
2022-07-29T01:24:32.374Z,13.90
2022-07-29T01:27:16.320Z,11.40
2022-07-29T01:29:56.174Z,13.10
2022-07-29T01:32:31.611Z,10.90
2022-07-29T01:35:08.738Z,10.80
2022-07-29T01:37:45.148Z,10.50
2022-07-29T01:40:24.124Z,9.60
2022-07-29T01:42:57.722Z,12.50
2022-07-29T01:45:35.423Z,10.20
2022-07-29T01:48:11.167Z,13.10
2022-07-29T01:50:49.480Z,13.00
2022-07-29T01:53:27.899Z,12.50
2022-07-29T01:56:11.083Z,10.60
2022-07-29T01:58:45.853Z,10.20
2022-07-29T02:01:18.328Z,12.10
2022-07-29T02:03:50.063Z,10.70
2022-07-29T02:06:24.694Z,13.20
2022-07-29T02:08:57.926Z,10.50
2022-07-29T02:11:29.274Z,11.80
2022-07-29T02:14:01.929Z,11.90
2022-07-29T02:16:38.402Z,10.60
2022-07-29T02:19:11.942Z,11.30
2022-07-29T02:21:44.246Z,14.10
2022-07-29T02:24:16.967Z,10.40
2022-07-29T02:26:49.800Z,12.00
2022-07-29T02:29:23.845Z,14.60
2022-07-29T02:31:56.194Z,13.70
2022-07-29T02:34:27.611Z,13.00
2022-07-29T02:37:00.181Z,11.00
2022-07-29T02:39:33.287Z,13.10
2022-07-29T02:42:07.458Z,11.00
2022-07-29T02:44:38.906Z,12.70
2022-07-29T02:47:14.875Z,11.00
2022-07-29T02:49:55.003Z,11.90
2022-07-29T02:52:33.795Z,11.60
2022-07-29T02:55:11.955Z,11.20
2022-07-29T02:57:53.971Z,11.70
2022-07-29T03:00:29.686Z,9.60
2022-07-29T03:03:05.261Z,12.70
2022-07-29T03:05:36.514Z,11.90
2022-07-29T03:08:11.881Z,10.30
2022-07-29T03:10:45.467Z,11.80
2022-07-29T03:13:16.890Z,13.00
2022-07-29T03:15:48.651Z,12.60
2022-07-29T03:18:19.887Z,9.60
2022-07-29T03:23:25.107Z,10.70
2022-07-29T03:25:56.444Z,14.50
2022-07-29T03:28:29.246Z,12.50
2022-07-29T03:30:59.872Z,12.60
2022-07-29T03:33:31.359Z,10.10
2022-07-29T03:36:03.334Z,12.00
2022-07-29T03:38:38.166Z,10.40
2022-07-29T03:41:12.782Z,10.40
2022-07-29T03:43:49.241Z,12.50
2022-07-29T03:46:24.019Z,10.60
2022-07-29T03:48:59.127Z,13.80
2022-07-29T03:51:33.454Z,13.60
2022-07-29T03:54:09.846Z,14.80
2022-07-29T03:56:44.610Z,11.20
2022-07-29T03:59:17.596Z,12.10
2022-07-29T04:01:49.939Z,11.10
2022-07-29T04:04:20.736Z,11.80
2022-07-29T04:06:51.389Z,11.60
2022-07-29T04:09:22.098Z,11.00
2022-07-29T04:12:01.930Z,11.60
2022-07-29T04:14:35.413Z,12.60
2022-07-29T04:17:07.359Z,12.40
2022-07-29T04:19:37.954Z,10.30
2022-07-29T04:22:08.457Z,13.10
2022-07-29T04:24:41.823Z,12.70
2022-07-29T04:27:14.919Z,10.80
2022-07-29T04:29:56.389Z,10.60
2022-07-29T04:32:28.303Z,15.40
2022-07-29T04:34:59.916Z,11.40
2022-07-29T04:37:30.359Z,12.50
2022-07-29T04:40:00.963Z,11.30
2022-07-29T04:42:31.403Z,13.70
2022-07-29T04:45:02.569Z,11.70
2022-07-29T04:47:33.315Z,12.20
2022-07-29T04:50:04.353Z,11.40
2022-07-29T04:52:35.697Z,12.80
2022-07-29T04:55:07.975Z,11.30
2022-07-29T04:57:38.512Z,11.90
2022-07-29T05:00:12.223Z,14.20
2022-07-29T05:02:43.038Z,12.20
2022-07-29T05:05:13.643Z,13.30
2022-07-29T05:07:45.853Z,12.10
2022-07-29T05:10:16.532Z,10.90
2022-07-29T05:12:47.401Z,11.40
2022-07-29T05:15:18.639Z,12.80
2022-07-29T05:20:19.415Z,12.80
2022-07-29T05:22:52.675Z,11.00
2022-07-29T05:25:23.583Z,12.00
2022-07-29T05:28:17.594Z,11.30
2022-07-29T05:30:50.483Z,9.60
2022-07-29T05:33:34.793Z,16.80
2022-07-29T05:36:09.661Z,14.10
2022-07-29T05:42:09.689Z,9.60
2022-07-29T05:44:41.898Z,10.70
2022-07-29T05:47:12.916Z,12.50
2022-07-29T05:49:43.654Z,11.40
2022-07-29T05:52:14.752Z,15.60
2022-07-29T05:54:45.866Z,10.60
2022-07-29T05:57:21.212Z,12.50
2022-07-29T05:59:52.712Z,11.90
2022-07-29T06:02:23.386Z,10.90
2022-07-29T06:04:53.973Z,12.90
2022-07-29T06:07:24.849Z,13.40
2022-07-29T06:09:55.596Z,16.00
2022-07-29T06:12:26.220Z,14.50
2022-07-29T06:14:57.635Z,14.40
2022-07-29T06:17:28.453Z,13.40
2022-07-29T06:19:59.219Z,14.30
2022-07-29T06:22:29.872Z,13.70
2022-07-29T06:25:00.456Z,13.50
2022-07-29T06:27:31.224Z,11.00
2022-07-29T06:30:02.676Z,12.60
2022-07-29T06:32:33.267Z,14.80
2022-07-29T06:35:36.982Z,17.90
2022-07-29T06:37:55.396Z,11.70
2022-07-29T06:40:48.254Z,11.40
2022-07-29T06:43:19.004Z,12.30
2022-07-29T06:45:49.738Z,13.20
2022-07-29T06:48:20.509Z,11.50
2022-07-29T06:50:51.122Z,12.50
2022-07-29T06:53:23.211Z,13.10
2022-07-29T06:55:54.031Z,12.90
2022-07-29T06:58:24.735Z,11.10
2022-07-29T07:01:04.387Z,14.40
2022-07-29T07:03:35.806Z,16.30
2022-07-29T07:06:06.534Z,15.90
2022-07-29T07:08:37.724Z,14.10
2022-07-29T07:11:09.415Z,12.20
2022-07-29T07:13:40.162Z,14.80
2022-07-29T07:16:10.843Z,17.50
2022-07-29T07:18:41.693Z,14.40
2022-07-29T07:21:12.668Z,15.60
2022-07-29T07:23:50.117Z,13.50
2022-07-29T07:26:20.782Z,13.10
2022-07-29T07:28:51.309Z,13.40
2022-07-29T07:31:22.138Z,12.30
2022-07-29T07:33:54.295Z,12.90
2022-07-29T07:36:25.558Z,15.20
2022-07-29T07:38:56.277Z,13.60
2022-07-29T07:41:26.806Z,13.60
2022-07-29T07:44:03.435Z,16.00
2022-07-29T07:46:33.998Z,14.00
2022-07-29T07:49:04.827Z,16.00
2022-07-29T07:54:04.996Z,15.60
2022-07-29T07:56:35.580Z,15.90
2022-07-29T07:59:06.172Z,13.80
2022-07-29T08:01:55.254Z,11.70
2022-07-29T08:04:28.900Z,14.30
2022-07-29T08:07:00.526Z,13.50
2022-07-29T08:09:31.930Z,15.30
2022-07-29T08:12:04.740Z,21.40
2022-07-29T08:14:35.709Z,14.10
2022-07-29T08:19:35.841Z,16.00
2022-07-29T08:22:06.821Z,16.20
2022-07-29T08:27:42.588Z,15.50
2022-07-29T08:30:13.056Z,14.80
2022-07-29T08:32:53.738Z,16.40
2022-07-29T08:35:26.025Z,15.60
2022-07-29T08:37:57.907Z,13.70
2022-07-29T08:40:32.553Z,16.20
2022-07-29T08:43:08.410Z,16.40
2022-07-29T08:45:48.573Z,16.60
2022-07-29T08:48:22.277Z,14.70
2022-07-29T08:50:58.890Z,16.50
2022-07-29T08:53:31.913Z,15.30
2022-07-29T08:56:03.584Z,16.60
2022-07-29T08:58:38.304Z,13.00
2022-07-29T09:01:13.899Z,18.00
2022-07-29T09:03:48.441Z,17.00
2022-07-29T09:06:22.114Z,18.30
2022-07-29T09:08:53.281Z,15.30
2022-07-29T09:11:23.967Z,14.50
2022-07-29T09:13:55.124Z,16.50
2022-07-29T09:16:50.894Z,18.90
2022-07-29T09:19:26.619Z,20.00
2022-07-29T09:22:03.752Z,15.40
2022-07-29T09:24:48.332Z,17.60
2022-07-29T09:27:31.344Z,18.70
2022-07-29T09:30:06.968Z,17.00
2022-07-29T09:32:59.543Z,17.40
2022-07-29T09:35:32.080Z,17.30
2022-07-29T09:38:13.785Z,21.40
2022-07-29T09:40:57.682Z,20.30
2022-07-29T09:43:33.032Z,18.00
2022-07-29T09:46:15.947Z,20.10
2022-07-29T09:48:46.676Z,16.90
2022-07-29T09:51:37.636Z,18.60
2022-07-29T09:54:26.677Z,21.30
2022-07-29T09:56:58.299Z,17.30
2022-07-29T09:59:29.307Z,20.80
2022-07-29T10:02:00.317Z,18.70
2022-07-29T10:04:42.689Z,21.10
2022-07-29T10:07:13.295Z,18.00
2022-07-29T10:09:57.557Z,17.90
2022-07-29T10:12:35.916Z,17.30
2022-07-29T10:15:08.089Z,18.90
2022-07-29T10:17:41.880Z,18.20
2022-07-29T10:20:16.467Z,17.30
2022-07-29T10:22:53.566Z,20.20
2022-07-29T10:25:25.478Z,21.90
2022-07-29T10:27:56.939Z,18.00
2022-07-29T10:30:29.094Z,18.40
2022-07-29T10:33:17.555Z,19.90
2022-07-29T10:36:10.649Z,20.10
2022-07-29T10:38:54.021Z,17.40
2022-07-29T10:41:49.755Z,18.00
2022-07-29T10:44:23.865Z,21.10
2022-07-29T10:46:55.411Z,18.90
2022-07-29T10:49:27.823Z,18.10
2022-07-29T10:52:06.667Z,19.30
2022-07-29T10:54:53.617Z,16.80
2022-07-29T10:57:57.728Z,17.00
2022-07-29T11:00:34.979Z,16.40
2022-07-29T11:03:10.452Z,22.00
2022-07-29T11:06:08.793Z,16.40
2022-07-29T11:08:39.566Z,18.70
2022-07-29T11:11:44.059Z,16.70
2022-07-29T11:14:56.739Z,16.70
2022-07-29T11:17:37.572Z,19.80
2022-07-29T11:20:41.357Z,20.00
2022-07-29T11:23:33.650Z,16.60
2022-07-29T11:26:25.566Z,25.50
2022-07-29T11:29:03.326Z,22.90
2022-07-29T11:31:39.834Z,22.30
2022-07-29T11:34:28.140Z,23.80
2022-07-29T11:37:28.117Z,21.20
2022-07-29T11:40:18.302Z,18.40
2022-07-29T11:42:52.796Z,19.10
2022-07-29T11:45:46.721Z,19.40
2022-07-29T11:48:28.432Z,22.30
2022-07-29T11:51:01.673Z,22.50
2022-07-29T11:53:35.249Z,22.10
2022-07-29T11:56:10.348Z,24.30
2022-07-29T11:58:41.368Z,21.40
2022-07-29T12:01:19.438Z,20.20
2022-07-29T12:03:53.700Z,19.70
2022-07-29T12:06:24.262Z,17.70
2022-07-29T12:08:54.925Z,17.70
2022-07-29T12:11:25.544Z,24.30
2022-07-29T12:13:56.661Z,19.50
2022-07-29T12:16:38.408Z,20.30
2022-07-29T12:19:12.024Z,17.50
2022-07-29T12:21:54.036Z,19.50
2022-07-29T12:24:44.916Z,18.90
2022-07-29T12:27:29.534Z,15.60
2022-07-29T12:30:03.573Z,19.00
2022-07-29T12:32:39.625Z,21.90
2022-07-29T12:35:12.057Z,16.10
2022-07-29T12:37:45.724Z,22.10
2022-07-29T12:40:20.529Z,23.90
2022-07-29T12:43:15.061Z,18.00
2022-07-29T12:45:48.386Z,22.60
2022-07-29T12:48:34.848Z,20.10
2022-07-29T12:51:10.605Z,19.00
2022-07-29T12:53:41.649Z,21.50
2022-07-29T12:56:41.668Z,17.60
2022-07-29T12:59:19.170Z,19.40
2022-07-29T13:01:51.427Z,20.70
2022-07-29T13:04:32.190Z,22.10
2022-07-29T13:07:06.951Z,17.60
2022-07-29T13:09:46.408Z,20.60
2022-07-29T13:12:18.431Z,23.70
2022-07-29T13:14:50.903Z,18.40
2022-07-29T13:17:24.229Z,15.70
2022-07-29T13:20:06.629Z,15.10
2022-07-29T13:22:39.521Z,15.80
2022-07-29T13:25:11.627Z,18.80
2022-07-29T13:27:42.340Z,19.80
2022-07-29T13:30:14.846Z,17.30
2022-07-29T13:32:45.684Z,14.20
2022-07-29T13:35:16.571Z,13.20
2022-07-29T13:37:47.166Z,13.80
2022-07-29T13:40:19.966Z,15.80
2022-07-29T13:42:50.505Z,15.50
2022-07-29T13:45:21.220Z,15.50
2022-07-29T13:47:51.819Z,17.70
2022-07-29T13:50:22.327Z,14.10
2022-07-29T13:52:53.643Z,15.10
2022-07-29T13:55:24.692Z,16.70
2022-07-29T13:57:55.157Z,16.10
2022-07-29T14:00:27.190Z,19.20
2022-07-29T14:02:57.911Z,17.90
2022-07-29T14:05:28.693Z,18.00
2022-07-29T14:07:59.213Z,14.00
2022-07-29T14:10:30.002Z,17.50
2022-07-29T14:13:00.684Z,13.50
2022-07-29T14:18:00.567Z,14.70
2022-07-29T14:20:31.764Z,17.60
2022-07-29T14:23:03.465Z,21.10
2022-07-29T14:25:35.831Z,14.60
2022-07-29T14:28:10.003Z,15.60
2022-07-29T14:30:42.193Z,18.60
2022-07-29T14:33:12.837Z,15.90
2022-07-29T14:38:12.561Z,15.30
2022-07-29T14:40:43.806Z,15.00
2022-07-29T14:43:14.795Z,17.80
2022-07-29T14:45:45.281Z,16.30
2022-07-29T14:50:44.891Z,15.80
2022-07-29T14:53:15.468Z,14.90
2022-07-29T14:58:16.664Z,13.40
2022-07-29T15:00:47.473Z,12.90
2022-07-29T15:03:24.027Z,16.00
2022-07-29T15:05:55.150Z,15.70
2022-07-29T15:08:26.360Z,15.70
2022-07-29T15:10:58.619Z,14.80
2022-07-29T15:13:30.540Z,17.50
2022-07-29T15:16:01.382Z,14.20
2022-07-29T15:18:32.011Z,16.00
2022-07-29T15:21:03.280Z,14.60
2022-07-29T15:23:34.071Z,15.40
2022-07-29T15:26:04.614Z,14.30
2022-07-29T15:28:35.332Z,17.10
2022-07-29T15:31:05.927Z,13.50
2022-07-29T15:33:36.505Z,14.00
2022-07-29T15:38:41.623Z,13.10
2022-07-29T15:41:15.759Z,13.70
2022-07-29T15:43:48.564Z,14.20
2022-07-29T15:46:38.096Z,15.90
2022-07-29T15:49:09.550Z,13.60
2022-07-29T15:51:40.219Z,15.30
2022-07-29T15:56:40.114Z,13.00
2022-07-29T16:01:42.472Z,15.40
2022-07-29T16:04:13.716Z,16.10
2022-07-29T16:09:14.377Z,12.50
2022-07-29T16:11:46.420Z,17.40
2022-07-29T16:14:17.566Z,13.40
2022-07-29T16:16:48.497Z,14.70
2022-07-29T16:19:19.093Z,15.80
2022-07-29T16:21:49.640Z,14.10
2022-07-29T16:24:20.162Z,17.10
2022-07-29T16:26:53.526Z,16.20
2022-07-29T16:29:24.043Z,16.10
2022-07-29T16:31:54.704Z,11.30
2022-07-29T16:34:25.328Z,13.10
2022-07-29T16:36:55.990Z,14.80
2022-07-29T16:41:59.879Z,15.70
2022-07-29T16:44:31.609Z,22.40
2022-07-29T16:49:33.338Z,19.80
2022-07-29T16:52:03.786Z,20.80
2022-07-29T16:54:34.253Z,18.50
2022-07-29T16:57:04.871Z,20.30
2022-07-29T16:59:35.470Z,23.80
2022-07-29T17:02:14.285Z,21.20
2022-07-29T17:04:47.306Z,20.70
2022-07-29T17:07:17.761Z,18.70
2022-07-29T17:09:51.538Z,18.90
2022-07-29T17:12:24.555Z,21.60
2022-07-29T17:14:55.112Z,19.60
2022-07-29T17:17:38.662Z,21.70
2022-07-29T17:20:12.096Z,24.20
2022-07-29T17:22:48.454Z,24.00
2022-07-29T17:25:21.051Z,20.00
2022-07-29T17:27:51.893Z,23.90
2022-07-29T17:30:22.616Z,22.30
2022-07-29T17:32:53.874Z,21.70
2022-07-29T17:35:42.263Z,25.20
2022-07-29T17:38:12.732Z,21.20
2022-07-29T17:40:43.475Z,23.60
2022-07-29T17:43:13.964Z,22.40
2022-07-29T17:45:49.407Z,23.90
2022-07-29T17:48:22.710Z,23.90
2022-07-29T17:50:55.431Z,23.60
2022-07-29T17:53:25.919Z,24.70
2022-07-29T17:55:58.205Z,22.90
2022-07-29T17:58:29.014Z,25.40
2022-07-29T18:00:59.679Z,22.50
2022-07-29T18:03:30.319Z,24.60
2022-07-29T18:06:01.444Z,25.70
2022-07-29T18:11:01.148Z,26.10
2022-07-29T18:13:31.788Z,23.80
2022-07-29T18:16:02.392Z,25.50
2022-07-29T18:18:32.865Z,22.60
2022-07-29T18:21:03.389Z,21.00
2022-07-29T18:23:34.175Z,32.90
2022-07-29T18:26:04.810Z,23.70
2022-07-29T18:28:35.488Z,23.60
2022-07-29T18:31:06.251Z,23.70
2022-07-29T18:33:41.816Z,24.70
2022-07-29T18:36:12.358Z,28.20
2022-07-29T18:38:43.455Z,25.80
2022-07-29T18:43:43.089Z,25.90
2022-07-29T18:46:13.747Z,25.00
2022-07-29T18:48:44.837Z,27.90
2022-07-29T18:51:15.434Z,21.50
2022-07-29T18:53:46.905Z,23.60
2022-07-29T18:56:17.428Z,22.40
2022-07-29T18:58:47.769Z,23.10
2022-07-29T19:01:18.363Z,21.00
2022-07-29T19:03:50.979Z,23.50
2022-07-29T19:06:25.362Z,24.30
2022-07-29T19:08:56.970Z,22.70
2022-07-29T19:11:28.310Z,21.50
2022-07-29T19:13:58.919Z,22.10
2022-07-29T19:16:29.711Z,22.00
2022-07-29T19:19:01.496Z,18.60
2022-07-29T19:21:32.521Z,20.20
2022-07-29T19:24:07.707Z,20.30
2022-07-29T19:26:46.591Z,17.70
2022-07-29T19:29:17.643Z,19.00
2022-07-29T19:31:48.735Z,16.90
2022-07-29T19:36:50.983Z,15.50
2022-07-29T19:39:31.917Z,16.20
2022-07-29T19:42:08.509Z,15.50
2022-07-29T19:44:39.488Z,15.70
2022-07-29T19:47:10.360Z,13.20
2022-07-29T19:49:50.800Z,14.40
2022-07-29T19:52:21.741Z,13.80
2022-07-29T19:54:52.797Z,11.80
2022-07-29T19:57:24.230Z,12.10
2022-07-29T19:59:56.413Z,13.60
2022-07-29T20:02:27.408Z,11.10
2022-07-29T20:04:58.175Z,13.20
2022-07-29T20:09:58.597Z,10.30
2022-07-29T20:12:29.234Z,11.50
2022-07-29T20:15:03.383Z,9.50
2022-07-29T20:17:39.702Z,10.00
2022-07-29T20:20:12.679Z,11.40
2022-07-29T20:22:44.538Z,11.80
2022-07-29T20:25:15.481Z,9.70
2022-07-29T20:27:46.477Z,10.10
2022-07-29T20:30:17.745Z,10.30
2022-07-29T20:32:49.056Z,10.40
2022-07-29T20:37:52.519Z,11.10
2022-07-29T20:40:30.905Z,9.90
2022-07-29T20:43:01.739Z,11.80
2022-07-29T20:45:32.542Z,12.00
2022-07-29T20:48:03.205Z,9.50
2022-07-29T20:50:33.969Z,10.20
2022-07-29T20:53:04.953Z,11.50
2022-07-29T20:55:35.645Z,10.20
2022-07-29T20:58:06.309Z,10.40
2022-07-29T21:00:37.028Z,10.90
2022-07-29T21:03:07.846Z,13.50
2022-07-29T21:05:39.367Z,11.50
2022-07-29T21:08:13.643Z,13.10
2022-07-29T21:10:44.282Z,11.70
2022-07-29T21:13:14.986Z,10.60
2022-07-29T21:15:49.213Z,13.30
2022-07-29T21:18:30.447Z,12.10
2022-07-29T21:21:05.300Z,11.50
2022-07-29T21:23:35.986Z,11.60
2022-07-29T21:26:12.518Z,10.20
2022-07-29T21:28:43.998Z,11.70
2022-07-29T21:31:16.825Z,12.40
2022-07-29T21:33:48.745Z,11.70
2022-07-29T21:36:47.273Z,10.40
2022-07-29T21:39:10.123Z,13.90
2022-07-29T21:41:40.684Z,11.50
2022-07-29T21:44:11.262Z,13.00
2022-07-29T21:46:41.839Z,13.30
2022-07-29T21:49:12.466Z,13.60
2022-07-29T21:51:43.153Z,12.50
2022-07-29T21:54:13.705Z,12.70
2022-07-29T21:56:44.700Z,12.30
2022-07-29T21:59:22.041Z,12.20
2022-07-29T22:01:52.958Z,13.40
2022-07-29T22:04:23.764Z,12.80
2022-07-29T22:06:54.491Z,14.10
2022-07-29T22:09:25.071Z,13.20
2022-07-29T22:11:56.013Z,13.80
2022-07-29T22:14:26.500Z,13.20
2022-07-29T22:16:58.088Z,14.10
2022-07-29T22:19:29.955Z,12.90
2022-07-29T22:22:01.163Z,13.20
2022-07-29T22:24:31.964Z,13.50
2022-07-29T22:27:02.891Z,13.50
2022-07-29T22:29:33.652Z,13.10
2022-07-29T22:32:04.684Z,13.70
2022-07-29T22:34:37.790Z,13.70
2022-07-29T22:37:10.392Z,12.50
2022-07-29T22:39:41.072Z,14.70
2022-07-29T22:42:12.148Z,12.90
2022-07-29T22:47:12.239Z,14.10
2022-07-29T22:49:43.100Z,13.20
2022-07-29T22:52:14.587Z,14.70
2022-07-29T22:54:45.604Z,15.80
2022-07-29T22:57:16.269Z,13.30
2022-07-29T22:59:46.901Z,14.30
2022-07-29T23:02:17.497Z,15.00
2022-07-29T23:04:48.491Z,15.60
2022-07-29T23:07:19.422Z,13.70
2022-07-29T23:09:50.302Z,13.60
2022-07-29T23:12:21.194Z,16.40
2022-07-29T23:14:51.660Z,14.80
2022-07-29T23:17:22.587Z,14.40
2022-07-29T23:19:53.657Z,15.50
2022-07-29T23:22:25.576Z,16.00
2022-07-29T23:24:56.203Z,15.00
2022-07-29T23:27:27.273Z,14.90
2022-07-29T23:29:57.940Z,13.80
2022-07-29T23:32:28.551Z,13.60
2022-07-29T23:34:59.171Z,15.80
2022-07-29T23:37:30.045Z,14.60
2022-07-29T23:40:01.098Z,13.50
2022-07-29T23:42:31.793Z,13.70
2022-07-29T23:45:02.806Z,14.50
2022-07-29T23:47:33.477Z,15.40
2022-07-29T23:50:04.172Z,15.90
2022-07-29T23:52:35.680Z,16.10
2022-07-29T23:55:37.015Z,15.60
2022-07-29T23:57:58.153Z,15.60
